sensor_id;sensor_type;location;lat;lon;timestamp;pressure;altitude;pressure_sealevel;temperature;humidity
12781;BME280;6454;43.304;24.344;2023-04-20T00:00:30;99941.59;;;9.49;90.53
12781;BME280;6454;43.304;24.344;2023-04-20T00:02:59;99950.66;;;9.34;92.41
12781;BME280;6454;43.304;24.344;2023-04-20T00:05:26;99946.53;;;9.42;93.25
12781;BME280;6454;43.304;24.344;2023-04-20T00:07:53;99929.56;;;9.31;93.25
12781;BME280;6454;43.304;24.344;2023-04-20T00:10:20;99946.97;;;9.54;92.12
12781;BME280;6454;43.304;24.344;2023-04-20T00:12:46;99938.28;;;9.57;92.18
12781;BME280;6454;43.304;24.344;2023-04-20T00:15:13;99944.91;;;9.41;93.49
12781;BME280;6454;43.304;24.344;2023-04-20T00:17:40;99932.75;;;9.38;94.52
12781;BME280;6454;43.304;24.344;2023-04-20T00:20:10;99935.44;;;9.38;94.78
12781;BME280;6454;43.304;24.344;2023-04-20T00:22:37;99930.81;;;9.44;94.42
12781;BME280;6454;43.304;24.344;2023-04-20T00:25:04;99928.56;;;9.51;92.71
12781;BME280;6454;43.304;24.344;2023-04-20T00:27:31;99925.56;;;9.52;92.17
12781;BME280;6454;43.304;24.344;2023-04-20T00:29:58;99925.88;;;9.51;92.31
12781;BME280;6454;43.304;24.344;2023-04-20T00:32:25;99931.66;;;9.39;93.45
12781;BME280;6454;43.304;24.344;2023-04-20T00:34:52;99932.94;;;9.47;93.16
12781;BME280;6454;43.304;24.344;2023-04-20T00:37:20;99926.94;;;9.50;92.14
12781;BME280;6454;43.304;24.344;2023-04-20T00:39:50;99930.47;;;9.50;91.94
12781;BME280;6454;43.304;24.344;2023-04-20T00:42:16;99925.34;;;9.49;92.17
12781;BME280;6454;43.304;24.344;2023-04-20T00:44:43;99922.69;;;9.44;91.96
12781;BME280;6454;43.304;24.344;2023-04-20T00:47:10;99926.50;;;9.38;92.90
12781;BME280;6454;43.304;24.344;2023-04-20T00:49:37;99922.69;;;9.44;91.93
12781;BME280;6454;43.304;24.344;2023-04-20T00:52:04;99924.06;;;9.41;91.62
12781;BME280;6454;43.304;24.344;2023-04-20T00:54:32;99920.59;;;9.36;91.55
12781;BME280;6454;43.304;24.344;2023-04-20T00:56:59;99924.75;;;9.23;92.13
12781;BME280;6454;43.304;24.344;2023-04-20T00:59:27;99925.06;;;9.17;92.21
12781;BME280;6454;43.304;24.344;2023-04-20T01:01:53;99923.22;;;9.12;92.30
12781;BME280;6454;43.304;24.344;2023-04-20T01:04:20;99923.19;;;9.17;90.86
12781;BME280;6454;43.304;24.344;2023-04-20T01:06:47;99923.75;;;9.14;89.85
12781;BME280;6454;43.304;24.344;2023-04-20T01:09:14;99920.81;;;9.05;89.97
12781;BME280;6454;43.304;24.344;2023-04-20T01:11:42;99918.44;;;8.99;90.99
12781;BME280;6454;43.304;24.344;2023-04-20T01:14:09;99920.38;;;8.93;91.32
12781;BME280;6454;43.304;24.344;2023-04-20T01:16:36;99908.50;;;8.89;91.07
12781;BME280;6454;43.304;24.344;2023-04-20T01:19:02;99910.09;;;8.90;90.19
12781;BME280;6454;43.304;24.344;2023-04-20T01:21:29;99912.56;;;8.87;89.69
12781;BME280;6454;43.304;24.344;2023-04-20T01:23:57;99907.78;;;8.74;90.36
12781;BME280;6454;43.304;24.344;2023-04-20T01:26:26;99907.84;;;8.64;91.15
12781;BME280;6454;43.304;24.344;2023-04-20T01:28:53;99909.75;;;8.58;91.59
12781;BME280;6454;43.304;24.344;2023-04-20T01:31:19;99919.72;;;8.63;90.76
12781;BME280;6454;43.304;24.344;2023-04-20T01:33:46;99912.44;;;8.63;89.79
12781;BME280;6454;43.304;24.344;2023-04-20T01:36:13;99919.22;;;8.61;88.89
12781;BME280;6454;43.304;24.344;2023-04-20T01:38:40;99917.66;;;8.50;90.12
12781;BME280;6454;43.304;24.344;2023-04-20T01:41:08;99912.84;;;8.41;90.00
12781;BME280;6454;43.304;24.344;2023-04-20T01:43:37;99911.00;;;8.32;90.10
12781;BME280;6454;43.304;24.344;2023-04-20T01:46:04;99895.03;;;8.25;89.46
12781;BME280;6454;43.304;24.344;2023-04-20T01:48:31;99915.56;;;8.31;88.43
12781;BME280;6454;43.304;24.344;2023-04-20T01:50:58;99889.13;;;8.18;88.18
12781;BME280;6454;43.304;24.344;2023-04-20T01:53:25;99905.31;;;8.18;89.40
12781;BME280;6454;43.304;24.344;2023-04-20T01:55:53;99898.63;;;8.06;89.68
12781;BME280;6454;43.304;24.344;2023-04-20T01:58:21;99900.78;;;8.04;90.16
12781;BME280;6454;43.304;24.344;2023-04-20T02:00:48;99898.91;;;8.04;89.95
12781;BME280;6454;43.304;24.344;2023-04-20T02:03:15;99898.38;;;8.02;89.08
12781;BME280;6454;43.304;24.344;2023-04-20T02:05:41;99898.41;;;7.97;89.05
12781;BME280;6454;43.304;24.344;2023-04-20T02:08:08;99895.72;;;7.87;89.92
12781;BME280;6454;43.304;24.344;2023-04-20T02:10:35;99892.53;;;7.70;90.42
12781;BME280;6454;43.304;24.344;2023-04-20T02:13:02;99890.09;;;7.68;90.22
12781;BME280;6454;43.304;24.344;2023-04-20T02:15:30;99894.41;;;7.74;89.01
12781;BME280;6454;43.304;24.344;2023-04-20T02:17:57;99899.81;;;7.79;87.72
12781;BME280;6454;43.304;24.344;2023-04-20T02:20:24;99893.59;;;7.74;87.00
12781;BME280;6454;43.304;24.344;2023-04-20T02:22:50;99891.19;;;7.62;88.38
12781;BME280;6454;43.304;24.344;2023-04-20T02:25:17;99890.66;;;7.55;89.39
12781;BME280;6454;43.304;24.344;2023-04-20T02:27:44;99887.44;;;7.48;89.80
12781;BME280;6454;43.304;24.344;2023-04-20T02:30:11;99889.88;;;7.50;88.88
12781;BME280;6454;43.304;24.344;2023-04-20T02:32:40;99888.78;;;7.51;88.76
12781;BME280;6454;43.304;24.344;2023-04-20T02:35:07;99890.13;;;7.43;89.03
12781;BME280;6454;43.304;24.344;2023-04-20T02:37:34;99893.66;;;7.39;89.79
12781;BME280;6454;43.304;24.344;2023-04-20T02:40:01;99886.91;;;7.36;89.71
12781;BME280;6454;43.304;24.344;2023-04-20T02:42:29;99896.34;;;7.34;89.39
12781;BME280;6454;43.304;24.344;2023-04-20T02:44:56;99888.53;;;7.42;87.85
12781;BME280;6454;43.304;24.344;2023-04-20T02:47:22;99892.03;;;7.43;87.16
12781;BME280;6454;43.304;24.344;2023-04-20T02:49:50;99882.31;;;7.37;87.35
12781;BME280;6454;43.304;24.344;2023-04-20T02:52:17;99890.16;;;7.28;88.54
12781;BME280;6454;43.304;24.344;2023-04-20T02:54:44;99882.63;;;7.20;89.22
12781;BME280;6454;43.304;24.344;2023-04-20T02:57:11;99884.22;;;7.16;89.95
12781;BME280;6454;43.304;24.344;2023-04-20T02:59:38;99889.38;;;7.18;89.46
12781;BME280;6454;43.304;24.344;2023-04-20T03:02:05;99885.84;;;7.22;88.41
12781;BME280;6454;43.304;24.344;2023-04-20T03:04:32;99885.56;;;7.19;88.26
12781;BME280;6454;43.304;24.344;2023-04-20T03:07:00;99891.78;;;7.14;88.72
12781;BME280;6454;43.304;24.344;2023-04-20T03:09:28;99894.19;;;7.10;89.19
12781;BME280;6454;43.304;24.344;2023-04-20T03:11:55;99889.38;;;7.02;89.89
12781;BME280;6454;43.304;24.344;2023-04-20T03:14:22;99890.19;;;6.98;90.17
12781;BME280;6454;43.304;24.344;2023-04-20T03:16:48;99891.50;;;7.05;88.56
12781;BME280;6454;43.304;24.344;2023-04-20T03:19:15;99890.72;;;7.05;88.12
12781;BME280;6454;43.304;24.344;2023-04-20T03:21:43;99883.69;;;6.89;89.01
12781;BME280;6454;43.304;24.344;2023-04-20T03:24:11;99896.09;;;6.85;90.49
12781;BME280;6454;43.304;24.344;2023-04-20T03:26:38;99896.91;;;6.85;90.89
12781;BME280;6454;43.304;24.344;2023-04-20T03:29:05;99899.03;;;6.88;91.13
12781;BME280;6454;43.304;24.344;2023-04-20T03:31:32;99893.13;;;6.96;89.36
12781;BME280;6454;43.304;24.344;2023-04-20T03:33:59;99896.09;;;7.00;88.31
12781;BME280;6454;43.304;24.344;2023-04-20T03:36:26;99902.84;;;6.92;88.59
12781;BME280;6454;43.304;24.344;2023-04-20T03:38:53;99865.31;;;6.56;89.59
12781;BME280;6454;43.304;24.344;2023-04-20T03:41:22;99909.28;;;6.86;89.63
12781;BME280;6454;43.304;24.344;2023-04-20T03:43:48;99901.72;;;6.88;89.93
12781;BME280;6454;43.304;24.344;2023-04-20T03:46:15;99909.84;;;6.93;88.85
12781;BME280;6454;43.304;24.344;2023-04-20T03:48:42;99910.13;;;6.97;88.89
12781;BME280;6454;43.304;24.344;2023-04-20T03:51:09;99909.03;;;6.93;89.33
12781;BME280;6454;43.304;24.344;2023-04-20T03:53:36;99909.28;;;6.81;90.72
12781;BME280;6454;43.304;24.344;2023-04-20T03:56:03;99918.47;;;6.85;91.00
12781;BME280;6454;43.304;24.344;2023-04-20T03:58:31;99916.31;;;6.87;90.79
12781;BME280;6454;43.304;24.344;2023-04-20T04:01:01;99921.97;;;6.96;90.23
12781;BME280;6454;43.304;24.344;2023-04-20T04:03:28;99921.44;;;7.04;89.77
12781;BME280;6454;43.304;24.344;2023-04-20T04:05:55;99916.56;;;7.01;90.12
12781;BME280;6454;43.304;24.344;2023-04-20T04:08:22;99920.91;;;6.97;91.66
12781;BME280;6454;43.304;24.344;2023-04-20T04:10:48;99919.25;;;6.91;93.13
12781;BME280;6454;43.304;24.344;2023-04-20T04:13:15;99920.63;;;6.98;93.76
12781;BME280;6454;43.304;24.344;2023-04-20T04:15:43;99926.03;;;7.08;93.93
12781;BME280;6454;43.304;24.344;2023-04-20T04:18:10;99914.72;;;7.22;93.22
12781;BME280;6454;43.304;24.344;2023-04-20T04:20:37;99922.53;;;7.28;93.37
12781;BME280;6454;43.304;24.344;2023-04-20T04:23:04;99924.16;;;7.24;93.86
12781;BME280;6454;43.304;24.344;2023-04-20T04:25:31;99920.91;;;7.27;94.93
12781;BME280;6454;43.304;24.344;2023-04-20T04:27:58;99925.78;;;7.35;95.77
12781;BME280;6454;43.304;24.344;2023-04-20T04:30:25;99930.38;;;7.40;95.97
12781;BME280;6454;43.304;24.344;2023-04-20T04:32:55;99930.34;;;7.55;95.88
12781;BME280;6454;43.304;24.344;2023-04-20T04:35:24;99930.88;;;7.67;95.23
12781;BME280;6454;43.304;24.344;2023-04-20T04:37:50;99928.69;;;7.69;95.43
12781;BME280;6454;43.304;24.344;2023-04-20T04:40:18;99931.13;;;7.65;96.20
12781;BME280;6454;43.304;24.344;2023-04-20T04:42:45;99927.63;;;7.65;96.58
12781;BME280;6454;43.304;24.344;2023-04-20T04:45:13;99933.56;;;7.67;96.42
12781;BME280;6454;43.304;24.344;2023-04-20T04:47:39;99926.28;;;7.77;96.52
12781;BME280;6454;43.304;24.344;2023-04-20T04:50:09;99924.88;;;7.90;95.33
12781;BME280;6454;43.304;24.344;2023-04-20T04:52:37;99937.00;;;7.98;95.25
12781;BME280;6454;43.304;24.344;2023-04-20T04:55:05;99935.69;;;7.95;96.01
12781;BME280;6454;43.304;24.344;2023-04-20T04:57:33;99934.56;;;7.96;96.71
12781;BME280;6454;43.304;24.344;2023-04-20T05:00:00;99935.94;;;7.99;97.11
12781;BME280;6454;43.304;24.344;2023-04-20T05:02:28;99942.94;;;8.05;97.85
12781;BME280;6454;43.304;24.344;2023-04-20T05:04:55;99940.44;;;8.23;98.00
12781;BME280;6454;43.304;24.344;2023-04-20T05:07:23;99945.56;;;8.35;98.05
12781;BME280;6454;43.304;24.344;2023-04-20T05:09:50;99933.66;;;8.36;97.73
12781;BME280;6454;43.304;24.344;2023-04-20T05:12:17;99939.56;;;8.43;97.78
12781;BME280;6454;43.304;24.344;2023-04-20T05:14:44;99951.69;;;8.51;98.50
12781;BME280;6454;43.304;24.344;2023-04-20T05:17:11;99947.09;;;8.56;99.04
12781;BME280;6454;43.304;24.344;2023-04-20T05:19:38;99947.03;;;8.66;99.32
12781;BME280;6454;43.304;24.344;2023-04-20T05:22:04;99946.97;;;8.81;99.50
12781;BME280;6454;43.304;24.344;2023-04-20T05:24:33;99953.34;;;8.95;99.94
12781;BME280;6454;43.304;24.344;2023-04-20T05:27:00;99945.13;;;9.11;100.00
12781;BME280;6454;43.304;24.344;2023-04-20T05:29:27;99944.97;;;9.31;100.00
12781;BME280;6454;43.304;24.344;2023-04-20T05:31:54;99936.69;;;9.51;100.00
12781;BME280;6454;43.304;24.344;2023-04-20T05:34:21;99937.03;;;9.73;100.00
12781;BME280;6454;43.304;24.344;2023-04-20T05:36:47;99946.03;;;9.92;100.00
12781;BME280;6454;43.304;24.344;2023-04-20T05:39:14;99941.56;;;10.06;100.00
12781;BME280;6454;43.304;24.344;2023-04-20T05:41:43;99943.03;;;10.22;100.00
12781;BME280;6454;43.304;24.344;2023-04-20T05:44:10;99951.72;;;10.43;100.00
12781;BME280;6454;43.304;24.344;2023-04-20T05:46:37;99940.94;;;10.62;100.00
12781;BME280;6454;43.304;24.344;2023-04-20T05:49:03;99941.44;;;10.82;100.00
12781;BME280;6454;43.304;24.344;2023-04-20T05:51:30;99949.59;;;11.01;100.00
12781;BME280;6454;43.304;24.344;2023-04-20T05:53:58;99946.66;;;11.16;100.00
12781;BME280;6454;43.304;24.344;2023-04-20T05:56:25;99952.34;;;11.33;99.72
12781;BME280;6454;43.304;24.344;2023-04-20T05:58:53;99955.31;;;11.50;98.18
12781;BME280;6454;43.304;24.344;2023-04-20T06:01:21;99951.53;;;11.65;96.62
12781;BME280;6454;43.304;24.344;2023-04-20T06:03:47;99952.63;;;11.83;95.02
12781;BME280;6454;43.304;24.344;2023-04-20T06:06:14;99902.31;;;11.53;92.99
12781;BME280;6454;43.304;24.344;2023-04-20T06:08:41;99953.44;;;11.97;92.74
12781;BME280;6454;43.304;24.344;2023-04-20T06:11:08;99962.72;;;12.09;92.96
12781;BME280;6454;43.304;24.344;2023-04-20T06:13:35;99962.53;;;12.19;92.08
12781;BME280;6454;43.304;24.344;2023-04-20T06:16:03;99962.22;;;12.35;91.59
12781;BME280;6454;43.304;24.344;2023-04-20T06:18:33;99959.53;;;12.48;89.82
12781;BME280;6454;43.304;24.344;2023-04-20T06:21:00;99962.09;;;12.67;84.17
12781;BME280;6454;43.304;24.344;2023-04-20T06:23:27;99955.03;;;12.79;82.56
12781;BME280;6454;43.304;24.344;2023-04-20T06:25:54;99957.44;;;12.94;84.64
12781;BME280;6454;43.304;24.344;2023-04-20T06:28:21;99954.38;;;13.10;86.46
12781;BME280;6454;43.304;24.344;2023-04-20T06:30:48;99956.28;;;13.23;80.00
12781;BME280;6454;43.304;24.344;2023-04-20T06:33:16;99964.09;;;13.38;77.47
12781;BME280;6454;43.304;24.344;2023-04-20T06:35:42;99960.31;;;13.47;77.80
12781;BME280;6454;43.304;24.344;2023-04-20T06:38:09;99963.72;;;13.53;76.76
12781;BME280;6454;43.304;24.344;2023-04-20T06:40:36;99967.75;;;13.55;78.12
12781;BME280;6454;43.304;24.344;2023-04-20T06:43:03;99959.50;;;13.47;77.40
12781;BME280;6454;43.304;24.344;2023-04-20T06:45:30;99961.22;;;13.65;77.03
12781;BME280;6454;43.304;24.344;2023-04-20T06:47:56;99953.34;;;13.86;78.30
12781;BME280;6454;43.304;24.344;2023-04-20T06:50:25;99952.00;;;14.05;78.38
12781;BME280;6454;43.304;24.344;2023-04-20T06:52:52;99955.06;;;14.12;76.97
12781;BME280;6454;43.304;24.344;2023-04-20T06:55:19;99955.88;;;14.13;75.99
12781;BME280;6454;43.304;24.344;2023-04-20T06:57:45;99949.50;;;14.26;75.42
12781;BME280;6454;43.304;24.344;2023-04-20T07:00:13;99950.53;;;14.39;76.19
12781;BME280;6454;43.304;24.344;2023-04-20T07:02:41;99955.06;;;14.43;72.08
12781;BME280;6454;43.304;24.344;2023-04-20T07:05:08;99955.06;;;14.43;72.23
12781;BME280;6454;43.304;24.344;2023-04-20T07:07:37;99950.09;;;14.54;73.89
12781;BME280;6454;43.304;24.344;2023-04-20T07:10:04;99951.72;;;14.55;71.40
12781;BME280;6454;43.304;24.344;2023-04-20T07:12:33;99962.16;;;14.61;71.25
12781;BME280;6454;43.304;24.344;2023-04-20T07:15:01;99964.59;;;14.63;70.84
12781;BME280;6454;43.304;24.344;2023-04-20T07:17:28;99964.06;;;14.61;72.23
12781;BME280;6454;43.304;24.344;2023-04-20T07:19:55;99966.50;;;14.71;72.25
12781;BME280;6454;43.304;24.344;2023-04-20T07:22:22;99970.72;;;14.77;71.20
12781;BME280;6454;43.304;24.344;2023-04-20T07:24:50;99969.94;;;14.85;70.58
12781;BME280;6454;43.304;24.344;2023-04-20T07:27:17;99971.38;;;14.91;69.93
12781;BME280;6454;43.304;24.344;2023-04-20T07:29:44;99973.31;;;14.99;70.78
12781;BME280;6454;43.304;24.344;2023-04-20T07:32:11;99965.44;;;15.06;70.36
12781;BME280;6454;43.304;24.344;2023-04-20T07:34:37;99969.97;;;15.19;71.15
12781;BME280;6454;43.304;24.344;2023-04-20T07:37:04;99967.88;;;15.16;70.06
12781;BME280;6454;43.304;24.344;2023-04-20T07:39:31;99974.13;;;15.17;71.37
12781;BME280;6454;43.304;24.344;2023-04-20T07:42:01;99933.94;;;15.09;72.81
12781;BME280;6454;43.304;24.344;2023-04-20T07:44:28;99966.59;;;15.39;71.28
12781;BME280;6454;43.304;24.344;2023-04-20T07:46:55;99963.88;;;15.57;70.12
12781;BME280;6454;43.304;24.344;2023-04-20T07:49:23;99968.34;;;15.61;69.84
12781;BME280;6454;43.304;24.344;2023-04-20T07:51:50;99975.09;;;15.72;68.48
12781;BME280;6454;43.304;24.344;2023-04-20T07:54:17;99971.41;;;15.77;67.69
12781;BME280;6454;43.304;24.344;2023-04-20T07:56:43;99966.69;;;15.86;67.14
12781;BME280;6454;43.304;24.344;2023-04-20T07:59:12;99967.66;;;15.90;69.38
12781;BME280;6454;43.304;24.344;2023-04-20T08:01:38;99967.50;;;15.95;66.99
12781;BME280;6454;43.304;24.344;2023-04-20T08:04:05;99974.47;;;15.75;67.10
12781;BME280;6454;43.304;24.344;2023-04-20T08:06:32;99967.72;;;15.64;68.04
12781;BME280;6454;43.304;24.344;2023-04-20T08:08:59;99963.53;;;15.67;67.16
12781;BME280;6454;43.304;24.344;2023-04-20T08:11:25;99972.38;;;15.72;68.04
12781;BME280;6454;43.304;24.344;2023-04-20T08:13:52;99973.00;;;15.78;68.34
12781;BME280;6454;43.304;24.344;2023-04-20T08:16:21;99972.16;;;15.94;66.88
12781;BME280;6454;43.304;24.344;2023-04-20T08:18:48;99962.44;;;16.05;68.13
12781;BME280;6454;43.304;24.344;2023-04-20T08:21:14;99964.53;;;16.08;66.03
12781;BME280;6454;43.304;24.344;2023-04-20T08:23:41;99960.59;;;15.89;67.86
12781;BME280;6454;43.304;24.344;2023-04-20T08:26:09;99962.72;;;15.75;66.97
12781;BME280;6454;43.304;24.344;2023-04-20T08:28:36;99964.28;;;15.93;68.48
12781;BME280;6454;43.304;24.344;2023-04-20T08:31:02;99964.72;;;16.03;67.52
12781;BME280;6454;43.304;24.344;2023-04-20T08:33:31;99959.22;;;16.12;67.01
12781;BME280;6454;43.304;24.344;2023-04-20T08:35:57;99957.91;;;16.18;67.67
12781;BME280;6454;43.304;24.344;2023-04-20T08:38:24;99950.59;;;16.39;66.36
12781;BME280;6454;43.304;24.344;2023-04-20T08:40:51;99949.25;;;16.54;62.90
12781;BME280;6454;43.304;24.344;2023-04-20T08:43:18;99950.34;;;16.61;65.44
12781;BME280;6454;43.304;24.344;2023-04-20T08:45:48;99948.94;;;16.76;65.77
12781;BME280;6454;43.304;24.344;2023-04-20T08:48:16;99951.91;;;16.92;64.08
12781;BME280;6454;43.304;24.344;2023-04-20T08:50:48;99953.88;;;17.12;65.90
12781;BME280;6454;43.304;24.344;2023-04-20T08:53:15;99952.31;;;17.23;65.26
12781;BME280;6454;43.304;24.344;2023-04-20T08:55:42;99959.75;;;17.02;63.48
12781;BME280;6454;43.304;24.344;2023-04-20T08:58:09;99946.16;;;16.85;63.83
12781;BME280;6454;43.304;24.344;2023-04-20T09:00:44;99952.91;;;16.87;63.83
12781;BME280;6454;43.304;24.344;2023-04-20T09:03:11;99959.28;;;17.00;63.55
12781;BME280;6454;43.304;24.344;2023-04-20T09:05:38;99962.19;;;17.15;63.73
12781;BME280;6454;43.304;24.344;2023-04-20T09:08:08;99958.59;;;17.23;62.96
12781;BME280;6454;43.304;24.344;2023-04-20T09:10:39;99950.97;;;17.29;62.39
12781;BME280;6454;43.304;24.344;2023-04-20T09:13:06;99956.97;;;17.43;62.37
12781;BME280;6454;43.304;24.344;2023-04-20T09:15:33;99943.47;;;17.59;61.26
12781;BME280;6454;43.304;24.344;2023-04-20T09:18:10;99951.19;;;17.77;61.44
12781;BME280;6454;43.304;24.344;2023-04-20T09:20:38;99951.31;;;17.81;59.70
12781;BME280;6454;43.304;24.344;2023-04-20T09:23:14;99945.16;;;17.84;58.41
12781;BME280;6454;43.304;24.344;2023-04-20T09:25:42;99941.56;;;17.71;59.02
12781;BME280;6454;43.304;24.344;2023-04-20T09:28:11;99869.81;;;17.49;60.30
12781;BME280;6454;43.304;24.344;2023-04-20T09:30:40;99944.81;;;17.85;60.53
12781;BME280;6454;43.304;24.344;2023-04-20T09:33:07;99937.50;;;17.77;59.98
12781;BME280;6454;43.304;24.344;2023-04-20T09:35:36;99892.06;;;17.68;61.93
12781;BME280;6454;43.304;24.344;2023-04-20T09:38:05;99928.72;;;17.96;61.35
12781;BME280;6454;43.304;24.344;2023-04-20T09:40:34;99916.22;;;17.86;61.09
12781;BME280;6454;43.304;24.344;2023-04-20T09:43:03;99916.84;;;18.04;60.56
12781;BME280;6454;43.304;24.344;2023-04-20T09:45:33;99925.06;;;18.40;60.05
12781;BME280;6454;43.304;24.344;2023-04-20T09:48:00;99918.44;;;18.65;60.25
12781;BME280;6454;43.304;24.344;2023-04-20T09:50:31;99925.06;;;18.89;58.73
12781;BME280;6454;43.304;24.344;2023-04-20T09:52:59;99920.91;;;19.07;58.84
12781;BME280;6454;43.304;24.344;2023-04-20T09:55:26;99906.56;;;19.13;58.90
12781;BME280;6454;43.304;24.344;2023-04-20T09:57:57;99912.25;;;19.20;58.21
12781;BME280;6454;43.304;24.344;2023-04-20T10:00:24;99909.25;;;19.25;56.53
12781;BME280;6454;43.304;24.344;2023-04-20T10:02:51;99899.34;;;19.49;57.04
12781;BME280;6454;43.304;24.344;2023-04-20T10:05:18;99900.50;;;19.63;57.32
12781;BME280;6454;43.304;24.344;2023-04-20T10:07:58;99895.06;;;19.23;58.12
12781;BME280;6454;43.304;24.344;2023-04-20T10:10:25;99850.78;;;18.73;56.98
12781;BME280;6454;43.304;24.344;2023-04-20T10:12:53;99898.31;;;19.13;56.25
12781;BME280;6454;43.304;24.344;2023-04-20T10:15:22;99886.06;;;19.11;55.08
12781;BME280;6454;43.304;24.344;2023-04-20T10:17:52;99893.41;;;19.62;53.61
12781;BME280;6454;43.304;24.344;2023-04-20T10:20:20;99890.88;;;19.29;53.55
12781;BME280;6454;43.304;24.344;2023-04-20T10:22:48;99892.25;;;19.08;56.49
12781;BME280;6454;43.304;24.344;2023-04-20T10:25:23;99898.53;;;18.69;57.30
12781;BME280;6454;43.304;24.344;2023-04-20T10:27:52;99900.25;;;18.37;57.12
12781;BME280;6454;43.304;24.344;2023-04-20T10:30:22;99889.03;;;18.06;59.21
12781;BME280;6454;43.304;24.344;2023-04-20T10:32:49;99883.50;;;17.69;58.21
12781;BME280;6454;43.304;24.344;2023-04-20T10:35:16;99895.63;;;17.80;56.68
12781;BME280;6454;43.304;24.344;2023-04-20T10:37:47;99883.91;;;18.04;56.78
12781;BME280;6454;43.304;24.344;2023-04-20T10:40:14;99887.22;;;18.34;57.99
12781;BME280;6454;43.304;24.344;2023-04-20T10:42:41;99887.53;;;18.69;57.96
12781;BME280;6454;43.304;24.344;2023-04-20T10:45:09;99880.41;;;18.92;56.21
12781;BME280;6454;43.304;24.344;2023-04-20T10:47:37;99887.97;;;18.83;55.84
12781;BME280;6454;43.304;24.344;2023-04-20T10:50:07;99886.47;;;18.85;54.26
12781;BME280;6454;43.304;24.344;2023-04-20T10:52:34;99870.09;;;18.89;53.37
12781;BME280;6454;43.304;24.344;2023-04-20T10:55:02;99886.78;;;18.96;54.44
12781;BME280;6454;43.304;24.344;2023-04-20T10:57:29;99881.19;;;18.92;53.79
12781;BME280;6454;43.304;24.344;2023-04-20T10:59:56;99882.25;;;19.15;53.48
12781;BME280;6454;43.304;24.344;2023-04-20T11:02:23;99879.16;;;19.45;52.37
12781;BME280;6454;43.304;24.344;2023-04-20T11:04:51;99879.41;;;19.40;52.37
12781;BME280;6454;43.304;24.344;2023-04-20T11:07:25;99876.81;;;19.59;54.08
12781;BME280;6454;43.304;24.344;2023-04-20T11:09:52;99832.25;;;19.25;52.38
12781;BME280;6454;43.304;24.344;2023-04-20T11:12:20;99877.06;;;19.54;54.54
12781;BME280;6454;43.304;24.344;2023-04-20T11:14:51;99870.94;;;19.33;54.30
12781;BME280;6454;43.304;24.344;2023-04-20T11:17:18;99884.94;;;19.00;56.66
12781;BME280;6454;43.304;24.344;2023-04-20T11:19:45;99878.13;;;18.82;56.19
12781;BME280;6454;43.304;24.344;2023-04-20T11:22:21;99877.94;;;18.62;56.98
12781;BME280;6454;43.304;24.344;2023-04-20T11:24:48;99876.22;;;18.46;57.31
12781;BME280;6454;43.304;24.344;2023-04-20T11:27:19;99866.50;;;18.36;58.52
12781;BME280;6454;43.304;24.344;2023-04-20T11:29:55;99854.13;;;18.30;57.37
12781;BME280;6454;43.304;24.344;2023-04-20T11:32:22;99874.28;;;18.34;57.43
12781;BME280;6454;43.304;24.344;2023-04-20T11:34:57;99867.31;;;18.25;56.61
12781;BME280;6454;43.304;24.344;2023-04-20T11:37:26;99851.06;;;18.08;57.05
12781;BME280;6454;43.304;24.344;2023-04-20T11:40:00;99862.38;;;18.18;56.94
12781;BME280;6454;43.304;24.344;2023-04-20T11:42:27;99850.50;;;18.14;56.88
12781;BME280;6454;43.304;24.344;2023-04-20T11:44:54;99857.56;;;18.15;57.70
12781;BME280;6454;43.304;24.344;2023-04-20T11:47:21;99846.03;;;18.22;57.51
12781;BME280;6454;43.304;24.344;2023-04-20T11:49:48;99850.81;;;18.61;56.85
12781;BME280;6454;43.304;24.344;2023-04-20T11:52:15;99841.69;;;18.97;56.40
12781;BME280;6454;43.304;24.344;2023-04-20T11:54:43;99843.94;;;19.22;55.79
12781;BME280;6454;43.304;24.344;2023-04-20T11:57:10;99846.00;;;19.53;53.49
12781;BME280;6454;43.304;24.344;2023-04-20T11:59:37;99829.75;;;19.79;52.01
12781;BME280;6454;43.304;24.344;2023-04-20T12:02:04;99837.84;;;19.88;51.90
12781;BME280;6454;43.304;24.344;2023-04-20T12:04:31;99838.56;;;20.01;50.97
12781;BME280;6454;43.304;24.344;2023-04-20T12:06:59;99821.41;;;20.07;51.02
12781;BME280;6454;43.304;24.344;2023-04-20T12:09:26;99835.44;;;20.33;51.32
12781;BME280;6454;43.304;24.344;2023-04-20T12:11:56;99822.25;;;20.42;49.91
12781;BME280;6454;43.304;24.344;2023-04-20T12:14:23;99819.22;;;20.47;51.21
12781;BME280;6454;43.304;24.344;2023-04-20T12:16:50;99820.16;;;20.55;50.15
12781;BME280;6454;43.304;24.344;2023-04-20T12:19:17;99822.13;;;20.54;48.75
12781;BME280;6454;43.304;24.344;2023-04-20T12:21:44;99823.97;;;20.66;46.98
12781;BME280;6454;43.304;24.344;2023-04-20T12:24:12;99803.41;;;20.44;47.68
12781;BME280;6454;43.304;24.344;2023-04-20T12:26:39;99813.66;;;20.44;47.39
12781;BME280;6454;43.304;24.344;2023-04-20T12:29:07;99808.75;;;20.37;48.91
12781;BME280;6454;43.304;24.344;2023-04-20T12:31:34;99810.22;;;20.50;48.70
12781;BME280;6454;43.304;24.344;2023-04-20T12:34:01;99801.56;;;20.33;46.64
12781;BME280;6454;43.304;24.344;2023-04-20T12:36:28;99795.50;;;20.43;47.50
12781;BME280;6454;43.304;24.344;2023-04-20T12:38:56;99799.06;;;20.63;47.48
12781;BME280;6454;43.304;24.344;2023-04-20T12:41:23;99787.84;;;20.71;46.69
12781;BME280;6454;43.304;24.344;2023-04-20T12:43:50;99785.50;;;20.92;47.43
12781;BME280;6454;43.304;24.344;2023-04-20T12:46:18;99783.63;;;20.96;46.25
12781;BME280;6454;43.304;24.344;2023-04-20T12:48:45;99783.38;;;21.05;46.47
12781;BME280;6454;43.304;24.344;2023-04-20T12:51:12;99777.88;;;21.05;46.65
12781;BME280;6454;43.304;24.344;2023-04-20T12:53:39;99781.81;;;21.04;47.14
12781;BME280;6454;43.304;24.344;2023-04-20T12:56:06;99766.97;;;21.08;47.93
12781;BME280;6454;43.304;24.344;2023-04-20T12:58:33;99770.03;;;21.26;48.28
12781;BME280;6454;43.304;24.344;2023-04-20T13:01:00;99777.44;;;21.22;47.53
12781;BME280;6454;43.304;24.344;2023-04-20T13:03:28;99764.38;;;21.19;49.07
12781;BME280;6454;43.304;24.344;2023-04-20T13:05:55;99775.28;;;21.12;47.26